createdAt,value
2023-05-10T20:50:19.657Z,21.27
2023-05-10T20:52:46.787Z,23.25
2023-05-10T20:55:16.848Z,22.05
2023-05-10T20:57:43.360Z,23.25
2023-05-10T21:00:18.111Z,20.55
2023-05-10T21:02:46.203Z,23.25
2023-05-10T21:05:16.469Z,21.35
2023-05-10T21:07:45.866Z,23.30
2023-05-10T21:10:13.905Z,27.15
2023-05-10T21:12:40.715Z,29.00
2023-05-10T21:15:07.999Z,22.70
2023-05-10T21:17:34.762Z,20.90
2023-05-10T21:20:01.700Z,22.40
2023-05-10T21:22:28.346Z,20.92
2023-05-10T21:24:54.886Z,23.10
2023-05-10T21:27:22.361Z,25.85
2023-05-10T21:29:48.856Z,26.35
2023-05-10T21:32:15.768Z,24.83
2023-05-10T21:34:42.652Z,22.35
2023-05-10T21:37:09.192Z,25.67
2023-05-10T21:39:36.285Z,24.42
2023-05-10T21:42:04.154Z,26.85
2023-05-10T21:44:31.733Z,27.83
2023-05-10T21:46:59.353Z,28.50
2023-05-10T21:49:27.835Z,26.75
2023-05-10T21:52:00.171Z,30.65
2023-05-10T21:54:26.946Z,32.47
2023-05-10T21:56:54.652Z,28.25
2023-05-10T21:59:21.964Z,26.85
2023-05-10T22:01:48.688Z,31.90
2023-05-10T22:04:17.029Z,30.65
2023-05-10T22:06:44.224Z,32.22
2023-05-10T22:09:10.859Z,29.65
2023-05-10T22:11:39.152Z,31.65
2023-05-10T22:14:07.347Z,32.20
2023-05-10T22:16:34.146Z,28.58
2023-05-10T22:19:00.835Z,29.15
2023-05-10T22:21:27.840Z,32.17
2023-05-10T22:23:57.274Z,27.08
2023-05-10T22:26:24.138Z,31.67
2023-05-10T22:28:50.625Z,38.50
2023-05-10T22:31:17.719Z,39.58
2023-05-10T22:33:46.455Z,39.53
2023-05-10T22:36:15.985Z,40.42
2023-05-10T22:38:43.628Z,41.50
2023-05-10T22:41:10.933Z,40.83
2023-05-10T22:43:37.347Z,39.78
2023-05-10T22:46:04.040Z,41.28
2023-05-10T22:48:34.174Z,35.47
2023-05-10T22:51:02.860Z,32.08
2023-05-10T22:53:29.284Z,31.77
2023-05-10T22:55:56.350Z,34.72
2023-05-10T22:58:23.078Z,37.20
2023-05-10T23:00:49.933Z,38.75
2023-05-10T23:03:16.699Z,38.95
2023-05-10T23:05:43.178Z,39.85
2023-05-10T23:08:09.721Z,43.55
2023-05-10T23:10:37.799Z,42.67
2023-05-10T23:13:04.550Z,43.67
2023-05-10T23:15:36.186Z,45.95
2023-05-10T23:18:02.768Z,45.45
2023-05-10T23:20:29.456Z,41.03
2023-05-10T23:23:03.340Z,40.42
2023-05-10T23:25:29.860Z,46.97
2023-05-10T23:27:57.718Z,49.65
2023-05-10T23:30:24.283Z,46.25
2023-05-10T23:32:50.893Z,50.33
2023-05-10T23:35:17.946Z,50.28
2023-05-10T23:37:45.331Z,48.70
2023-05-10T23:40:13.463Z,45.58
2023-05-10T23:42:40.286Z,46.00
2023-05-10T23:45:08.422Z,49.50
2023-05-10T23:47:35.016Z,49.10
2023-05-10T23:50:03.697Z,50.65
2023-05-10T23:52:30.141Z,47.30
2023-05-10T23:54:56.937Z,52.63
2023-05-10T23:57:23.431Z,53.67
2023-05-10T23:59:50.553Z,50.80
